createdAt,value
2023-04-21T03:59:41.393Z,4.87
2023-04-21T04:02:44.836Z,4.75
2023-04-21T04:05:47.876Z,4.22
2023-04-21T04:08:50.497Z,5.00
2023-04-21T04:11:53.399Z,5.25
2023-04-21T04:14:56.086Z,5.82
2023-04-21T04:17:59.010Z,6.30
2023-04-21T04:21:07.896Z,6.82
2023-04-21T04:24:11.630Z,9.52
2023-04-21T04:27:14.193Z,9.57
2023-04-21T04:30:17.189Z,9.52
2023-04-21T04:33:19.867Z,8.50
2023-04-21T04:36:24.289Z,8.25
2023-04-21T04:39:27.264Z,7.45
2023-04-21T04:42:30.234Z,6.35
2023-04-21T04:45:33.172Z,5.00
2023-04-21T04:48:36.126Z,5.50
2023-04-21T04:51:38.711Z,4.80
2023-04-21T04:54:41.577Z,4.05
2023-04-21T04:57:44.135Z,4.85
2023-04-21T05:00:47.167Z,4.72
2023-04-21T05:03:50.020Z,4.62
2023-04-21T05:06:53.133Z,4.20
2023-04-21T05:09:56.133Z,3.90
2023-04-21T05:12:59.185Z,4.25
2023-04-21T05:16:04.672Z,4.37
2023-04-21T05:19:08.166Z,4.70
2023-04-21T05:22:10.942Z,4.10
2023-04-21T05:25:17.274Z,4.45
2023-04-21T05:28:20.236Z,3.60
2023-04-21T05:31:24.642Z,3.83
2023-04-21T05:34:27.269Z,3.95
2023-04-21T05:37:30.184Z,4.18
2023-04-21T05:40:33.046Z,4.47
2023-04-21T05:43:36.348Z,4.62
2023-04-21T05:46:38.996Z,4.50
2023-04-21T05:49:42.400Z,4.45
2023-04-21T05:52:45.074Z,4.12
2023-04-21T05:55:48.048Z,4.20
2023-04-21T05:58:51.174Z,3.97
2023-04-21T06:01:54.137Z,4.05
2023-04-21T06:04:57.394Z,4.25
2023-04-21T06:08:00.187Z,3.53
2023-04-21T06:11:03.268Z,3.80
2023-04-21T06:14:06.071Z,4.30
2023-04-21T06:17:09.045Z,3.85
2023-04-21T06:20:12.401Z,3.72
2023-04-21T06:23:15.372Z,3.55
2023-04-21T06:26:18.128Z,3.65
2023-04-21T06:29:21.261Z,4.18
2023-04-21T06:32:24.054Z,3.67
2023-04-21T06:35:26.987Z,3.70
2023-04-21T06:38:29.650Z,3.60
2023-04-21T06:41:32.780Z,3.70
2023-04-21T06:44:35.566Z,3.60
2023-04-21T06:47:38.589Z,3.22
2023-04-21T06:50:41.489Z,3.70
2023-04-21T06:53:44.489Z,3.65
2023-04-21T06:56:47.041Z,3.75
2023-04-21T06:59:50.051Z,3.40
2023-04-21T07:02:52.872Z,3.70
2023-04-21T07:05:56.145Z,3.40
2023-04-21T07:08:58.823Z,3.12
2023-04-21T07:12:03.054Z,3.37
2023-04-21T07:15:06.478Z,3.05
2023-04-21T07:18:09.478Z,3.17
2023-04-21T07:21:12.196Z,3.35
2023-04-21T07:24:15.103Z,3.37
2023-04-21T07:27:19.387Z,3.47
2023-04-21T07:30:22.537Z,2.92
2023-04-21T07:33:25.366Z,3.05
2023-04-21T07:36:30.548Z,3.22
2023-04-21T07:39:33.871Z,3.40
2023-04-21T07:42:36.751Z,3.53
2023-04-21T07:45:39.575Z,2.67
2023-04-21T07:48:42.539Z,2.78
2023-04-21T07:51:45.612Z,2.72
2023-04-21T07:54:48.646Z,3.08
2023-04-21T07:57:51.175Z,2.58
2023-04-21T08:00:54.650Z,3.25
2023-04-21T08:03:57.625Z,2.90
2023-04-21T08:07:00.894Z,2.80
2023-04-21T08:10:05.492Z,2.90
2023-04-21T08:13:08.271Z,2.87
2023-04-21T08:16:11.446Z,3.17
2023-04-21T08:19:14.134Z,2.78
2023-04-21T08:22:17.380Z,3.00
2023-04-21T08:25:20.078Z,3.28
2023-04-21T08:28:23.024Z,3.35
2023-04-21T08:31:25.936Z,2.80
2023-04-21T08:34:29.098Z,3.28
2023-04-21T08:37:31.875Z,3.30
2023-04-21T08:40:37.805Z,2.90
2023-04-21T08:43:40.870Z,3.17
2023-04-21T08:46:47.770Z,3.80
2023-04-21T08:49:51.728Z,3.25
2023-04-21T08:52:55.771Z,3.15
2023-04-21T08:56:09.997Z,3.92
2023-04-21T08:59:14.093Z,3.50
2023-04-21T09:02:19.253Z,3.85
2023-04-21T09:05:24.911Z,3.40
2023-04-21T09:08:30.243Z,3.70
2023-04-21T09:11:34.618Z,3.67
2023-04-21T09:14:37.342Z,3.75
2023-04-21T09:17:40.340Z,3.58
2023-04-21T09:20:44.840Z,3.90
2023-04-21T09:23:52.433Z,4.22
2023-04-21T09:26:55.115Z,3.58
2023-04-21T09:30:07.310Z,3.33
2023-04-21T09:33:27.826Z,4.25
2023-04-21T09:36:33.798Z,3.83
2023-04-21T09:39:46.323Z,4.15
2023-04-21T09:42:56.478Z,3.75
2023-04-21T09:46:01.790Z,4.10
2023-04-21T09:49:05.845Z,4.00
2023-04-21T09:52:18.737Z,4.10
2023-04-21T09:55:28.964Z,4.05
2023-04-21T09:58:37.937Z,4.03
2023-04-21T10:04:44.383Z,3.92
2023-04-21T10:07:48.294Z,4.25
2023-04-21T10:10:52.989Z,3.87
2023-04-21T10:13:55.833Z,4.20
2023-04-21T10:17:06.884Z,4.35
2023-04-21T10:20:10.140Z,4.05
2023-04-21T10:23:26.745Z,4.70
2023-04-21T10:26:36.083Z,4.10
2023-04-21T10:29:55.521Z,4.90
2023-04-21T10:33:05.846Z,4.15
2023-04-21T10:36:12.367Z,4.62
2023-04-21T10:39:42.395Z,4.43
2023-04-21T10:42:49.177Z,4.40
2023-04-21T10:45:51.722Z,4.37
2023-04-21T10:48:54.660Z,4.57
2023-04-21T10:52:00.780Z,4.57
2023-04-21T10:55:07.667Z,4.53
2023-04-21T10:58:10.368Z,3.60
2023-04-21T11:01:13.382Z,4.37
2023-04-21T11:04:17.246Z,4.35
2023-04-21T11:07:23.067Z,4.10
2023-04-21T11:10:25.820Z,3.90
2023-04-21T11:13:34.850Z,4.35
2023-04-21T11:16:38.066Z,4.18
2023-04-21T11:19:42.091Z,4.00
2023-04-21T11:22:44.702Z,4.40
2023-04-21T11:25:49.464Z,4.68
2023-04-21T11:28:53.383Z,4.72
2023-04-21T11:31:56.268Z,4.05
2023-04-21T11:34:59.078Z,3.90
2023-04-21T11:38:06.011Z,4.57
2023-04-21T11:41:10.801Z,4.32
2023-04-21T11:44:30.525Z,4.22
2023-04-21T11:47:33.722Z,4.30
2023-04-21T11:50:38.974Z,4.40
2023-04-21T11:53:41.760Z,3.80
2023-04-21T11:56:48.539Z,3.85
2023-04-21T11:59:51.989Z,4.10
2023-04-21T12:02:58.565Z,3.75
2023-04-21T12:06:01.738Z,3.75
2023-04-21T12:09:04.387Z,4.00
2023-04-21T12:12:08.370Z,4.37
2023-04-21T12:15:16.347Z,3.78
2023-04-21T12:18:19.308Z,3.92
2023-04-21T12:21:30.456Z,3.83
2023-04-21T12:24:36.141Z,4.37
2023-04-21T12:27:49.029Z,3.95
2023-04-21T12:34:14.142Z,4.20
2023-04-21T12:37:20.151Z,4.20
2023-04-21T12:40:23.176Z,4.37
2023-04-21T12:43:27.091Z,4.50
2023-04-21T12:46:30.494Z,4.22
2023-04-21T12:49:35.641Z,4.53
2023-04-21T12:52:38.810Z,4.12
2023-04-21T12:55:47.024Z,4.40
2023-04-21T12:59:00.635Z,4.40
2023-04-21T13:02:03.940Z,3.85
2023-04-21T13:05:07.417Z,4.03
2023-04-21T13:08:10.528Z,4.18
2023-04-21T13:11:13.852Z,4.10
2023-04-21T13:14:18.399Z,3.90
2023-04-21T13:17:21.183Z,4.45
2023-04-21T13:20:24.338Z,3.90
2023-04-21T13:23:27.086Z,4.15
2023-04-21T13:26:33.753Z,4.12
2023-04-21T13:29:37.751Z,4.20
2023-04-21T13:32:42.326Z,3.97
2023-04-21T13:35:45.448Z,4.37
2023-04-21T13:38:48.585Z,4.00
2023-04-21T13:41:53.522Z,4.20
2023-04-21T13:44:57.609Z,4.20
2023-04-21T13:48:00.512Z,4.30
2023-04-21T13:51:04.369Z,4.35
2023-04-21T13:54:07.347Z,4.30
2023-04-21T13:57:10.752Z,4.75
2023-04-21T14:00:14.248Z,3.90
2023-04-21T14:03:19.773Z,4.00
2023-04-21T14:06:22.725Z,4.00
2023-04-21T14:09:26.237Z,4.30
2023-04-21T14:12:30.102Z,4.03
2023-04-21T14:15:36.435Z,4.03
2023-04-21T14:18:44.480Z,4.20
2023-04-21T14:21:48.035Z,4.15
2023-04-21T14:24:51.283Z,4.20
2023-04-21T14:27:54.883Z,3.80
2023-04-21T14:30:58.907Z,4.05
2023-04-21T14:34:02.069Z,3.90
2023-04-21T14:37:04.765Z,4.37
2023-04-21T14:40:09.191Z,4.10
2023-04-21T14:43:11.897Z,4.35
2023-04-21T14:46:15.112Z,3.97
2023-04-21T14:49:18.245Z,3.75
2023-04-21T14:52:21.377Z,3.70
2023-04-21T14:55:23.979Z,3.78
2023-04-21T14:58:27.052Z,4.03
2023-04-21T15:01:30.604Z,4.30
2023-04-21T15:04:33.581Z,4.32
2023-04-21T15:07:36.502Z,4.65
2023-04-21T15:10:41.930Z,4.12
2023-04-21T15:13:44.778Z,4.55
2023-04-21T15:16:47.756Z,4.55
2023-04-21T15:19:50.810Z,4.00
2023-04-21T15:22:55.913Z,4.40
2023-04-21T15:25:58.640Z,4.43
2023-04-21T15:29:01.822Z,4.45
2023-04-21T15:32:04.767Z,4.22
2023-04-21T15:35:10.166Z,4.45
2023-04-21T15:38:12.817Z,4.82
2023-04-21T15:41:17.488Z,4.60
2023-04-21T15:44:21.129Z,4.12
2023-04-21T15:47:27.426Z,4.32
2023-04-21T15:50:31.785Z,4.68
2023-04-21T15:53:36.709Z,4.72
2023-04-21T15:56:39.325Z,4.28
